createdAt,value
2018-12-16T00:01:54.276Z,101346.83
2018-12-16T00:04:21.982Z,101343.97
2018-12-16T00:06:49.544Z,101344.50
2018-12-16T00:09:17.063Z,101342.20
2018-12-16T00:11:45.472Z,101344.98
2018-12-16T00:14:12.952Z,101341.21
2018-12-16T00:16:41.197Z,101330.00
2018-12-16T00:19:08.694Z,101333.21
2018-12-16T00:21:36.635Z,101328.85
2018-12-16T00:24:04.292Z,101325.63
2018-12-16T00:26:43.772Z,101323.28
2018-12-16T00:29:12.317Z,101323.68
2018-12-16T00:31:42.634Z,101316.27
2018-12-16T00:34:10.155Z,101324.41
2018-12-16T00:36:38.628Z,101320.28
2018-12-16T00:39:07.038Z,101320.28
2018-12-16T00:41:34.533Z,101315.31
2018-12-16T00:44:02.980Z,101310.65
2018-12-16T00:46:30.556Z,101305.55
2018-12-16T00:48:58.065Z,101302.53
2018-12-16T00:51:25.625Z,101290.66
2018-12-16T00:53:53.135Z,101296.75
2018-12-16T00:56:21.538Z,101285.98
2018-12-16T00:58:49.069Z,101301.13
2018-12-16T01:01:16.755Z,101303.27
2018-12-16T01:03:44.740Z,101295.98
2018-12-16T01:06:12.235Z,101291.32
2018-12-16T01:08:40.276Z,101288.60
2018-12-16T01:11:07.892Z,101285.12
2018-12-16T01:13:38.277Z,101285.58
2018-12-16T01:16:05.818Z,101282.88
2018-12-16T01:18:33.384Z,101292.28
2018-12-16T01:21:01.737Z,101289.78
2018-12-16T01:23:29.225Z,101291.89
2018-12-16T01:25:57.125Z,101290.88
2018-12-16T01:28:24.679Z,101291.44
2018-12-16T01:30:52.235Z,101285.34
2018-12-16T01:33:19.767Z,101288.02
2018-12-16T01:35:47.372Z,101287.42
2018-12-16T01:38:14.865Z,101278.13
2018-12-16T01:40:43.178Z,101277.28
2018-12-16T01:43:11.181Z,101283.19
2018-12-16T01:45:38.805Z,101279.42
2018-12-16T01:48:06.354Z,101276.42
2018-12-16T01:50:34.096Z,101276.76
2018-12-16T01:53:02.684Z,101265.64
2018-12-16T01:55:30.276Z,101261.53
2018-12-16T01:57:59.424Z,101260.11
2018-12-16T02:00:28.643Z,101255.33
2018-12-16T02:02:56.253Z,101245.70
2018-12-16T02:05:23.814Z,101238.01
2018-12-16T02:07:51.287Z,101234.53
2018-12-16T02:10:18.850Z,101231.57
2018-12-16T02:12:46.424Z,101222.98
2018-12-16T02:15:14.657Z,101218.39
2018-12-16T02:17:43.291Z,101210.19
2018-12-16T02:20:11.632Z,101203.34
2018-12-16T02:22:39.118Z,101199.35
2018-12-16T02:25:07.853Z,101189.50
2018-12-16T02:27:35.507Z,101188.89
2018-12-16T02:30:03.302Z,101179.48
2018-12-16T02:32:31.058Z,101167.99
2018-12-16T02:34:58.567Z,101171.18
2018-12-16T02:37:26.254Z,101164.46
2018-12-16T02:39:55.692Z,101163.97
2018-12-16T02:42:23.217Z,101170.25
2018-12-16T02:44:50.960Z,101169.03
2018-12-16T02:47:19.271Z,101166.20
2018-12-16T02:49:46.760Z,101151.69
2018-12-16T02:52:15.767Z,101147.16
2018-12-16T02:54:44.061Z,101131.48
2018-12-16T02:57:11.641Z,101122.64
2018-12-16T02:59:40.523Z,101124.13
2018-12-16T03:02:09.064Z,101116.01
2018-12-16T03:04:37.625Z,101115.95
2018-12-16T03:07:05.130Z,101114.82
2018-12-16T03:09:32.727Z,101116.16
2018-12-16T03:12:00.359Z,101126.81
2018-12-16T03:14:29.235Z,101116.36
2018-12-16T03:16:58.672Z,101123.17
2018-12-16T03:19:26.149Z,101130.44
2018-12-16T03:21:55.702Z,101117.94
2018-12-16T03:24:23.210Z,101124.04
2018-12-16T03:26:50.813Z,101121.94
2018-12-16T03:29:18.386Z,101111.09
2018-12-16T03:31:46.076Z,101107.30
2018-12-16T03:34:13.625Z,101093.66
2018-12-16T03:36:41.211Z,101091.66
2018-12-16T03:39:08.778Z,101087.13
2018-12-16T03:41:37.103Z,101079.02
2018-12-16T03:44:05.041Z,101078.84
2018-12-16T03:46:32.517Z,101083.03
2018-12-16T03:49:00.056Z,101089.88
2018-12-16T03:51:28.538Z,101080.02
2018-12-16T03:53:56.095Z,101078.24
2018-12-16T03:56:23.575Z,101079.28
2018-12-16T03:59:03.476Z,101069.78
2018-12-16T04:01:31.023Z,101067.34
2018-12-16T04:03:59.509Z,101068.64
2018-12-16T04:06:27.052Z,101058.09
2018-12-16T04:08:54.679Z,101051.57
2018-12-16T04:11:22.367Z,101046.26
2018-12-16T04:13:49.913Z,101042.52
2018-12-16T04:16:17.408Z,101032.28
2018-12-16T04:18:45.938Z,101023.56
2018-12-16T04:21:13.486Z,101017.92
2018-12-16T04:23:40.999Z,101002.93
2018-12-16T04:26:08.616Z,100990.84
2018-12-16T04:28:37.525Z,100991.63
2018-12-16T04:31:05.978Z,100991.91
2018-12-16T04:33:33.491Z,100985.72
2018-12-16T04:36:01.126Z,100986.00
2018-12-16T04:38:28.622Z,100977.14
2018-12-16T04:40:57.771Z,100972.23
2018-12-16T04:43:25.288Z,100973.81
2018-12-16T04:45:52.785Z,100971.56
2018-12-16T04:48:20.322Z,100965.84
2018-12-16T04:50:47.922Z,100950.95
2018-12-16T04:53:15.475Z,100947.67
2018-12-16T04:55:43.348Z,100955.63
2018-12-16T04:58:10.885Z,100940.81
2018-12-16T05:00:38.517Z,100941.87
2018-12-16T05:03:06.067Z,100928.84
2018-12-16T05:05:33.569Z,100925.60
2018-12-16T05:08:01.963Z,100916.67
2018-12-16T05:10:31.053Z,100907.75
2018-12-16T05:12:58.635Z,100908.19
2018-12-16T05:15:26.269Z,100902.22
2018-12-16T05:17:53.879Z,100908.66
2018-12-16T05:20:21.393Z,100916.48
2018-12-16T05:22:48.950Z,100913.52
2018-12-16T05:25:16.558Z,100920.34
2018-12-16T05:27:44.038Z,100910.16
2018-12-16T05:30:11.648Z,100911.03
2018-12-16T05:32:39.292Z,100918.02
2018-12-16T05:35:07.245Z,100928.72
2018-12-16T05:37:34.786Z,100937.97
2018-12-16T05:40:04.034Z,100940.73
2018-12-16T05:42:32.506Z,100942.39
2018-12-16T05:44:59.997Z,100938.80
2018-12-16T05:47:29.221Z,100950.02
2018-12-16T05:49:57.644Z,100944.05
2018-12-16T05:52:25.249Z,100928.41
2018-12-16T05:54:52.793Z,100917.45
2018-12-16T05:57:20.439Z,100904.36
2018-12-16T05:59:47.960Z,100895.63
2018-12-16T06:02:16.128Z,100893.89
2018-12-16T06:04:43.641Z,100891.03
2018-12-16T06:07:11.197Z,100901.55
2018-12-16T06:09:38.762Z,100891.36
2018-12-16T06:12:06.730Z,100903.00
2018-12-16T06:14:34.249Z,100896.25
2018-12-16T06:17:02.718Z,100897.59
2018-12-16T06:19:30.322Z,100898.17
2018-12-16T06:21:57.888Z,100894.16
2018-12-16T06:24:25.442Z,100891.45
2018-12-16T06:26:53.823Z,100891.55
2018-12-16T06:29:21.391Z,100880.56
2018-12-16T06:31:49.016Z,100880.27
2018-12-16T06:34:17.564Z,100879.27
2018-12-16T06:36:45.246Z,100878.00
2018-12-16T06:39:13.393Z,100874.61
2018-12-16T06:41:42.374Z,100869.41
2018-12-16T06:44:10.728Z,100871.93
2018-12-16T06:46:39.989Z,100870.73
2018-12-16T06:49:08.935Z,100868.59
2018-12-16T06:51:36.471Z,100865.78
2018-12-16T06:54:05.166Z,100861.48
2018-12-16T06:56:32.973Z,100859.13
2018-12-16T06:59:02.280Z,100848.26
2018-12-16T07:01:29.758Z,100854.40
2018-12-16T07:03:57.267Z,100859.30
2018-12-16T07:06:24.913Z,100860.61
2018-12-16T07:08:52.880Z,100853.02
2018-12-16T07:11:21.758Z,100845.15
2018-12-16T07:13:51.940Z,100850.78
2018-12-16T07:16:19.965Z,100854.64
2018-12-16T07:18:47.881Z,100857.89
2018-12-16T07:21:15.535Z,100868.25
2018-12-16T07:23:43.181Z,100865.73
2018-12-16T07:26:12.006Z,100867.00
2018-12-16T07:28:39.699Z,100871.41
2018-12-16T07:31:09.014Z,100861.14
2018-12-16T07:33:37.261Z,100861.53
2018-12-16T07:36:05.969Z,100860.50
2018-12-16T07:38:33.464Z,100859.02
2018-12-16T07:41:01.065Z,100857.87
2018-12-16T07:43:28.792Z,100864.98
2018-12-16T07:45:57.243Z,100861.55
2018-12-16T07:48:25.283Z,100856.20
2018-12-16T07:50:54.717Z,100852.16
2018-12-16T07:53:23.986Z,100846.31
2018-12-16T07:55:51.627Z,100846.38
2018-12-16T07:58:21.599Z,100846.81
2018-12-16T08:00:52.532Z,100844.17
2018-12-16T08:03:22.251Z,100848.55
2018-12-16T08:05:49.835Z,100862.53
2018-12-16T08:08:17.618Z,100860.00
2018-12-16T08:10:46.002Z,100861.01
2018-12-16T08:13:14.038Z,100854.76
2018-12-16T08:15:41.933Z,100857.91
2018-12-16T08:18:10.176Z,100869.69
2018-12-16T08:20:38.409Z,100858.27
2018-12-16T08:23:07.578Z,100848.95
2018-12-16T08:25:35.212Z,100855.16
2018-12-16T08:28:03.935Z,100853.72
2018-12-16T08:30:32.341Z,100857.34
2018-12-16T08:32:59.888Z,100844.10
2018-12-16T08:35:27.955Z,100843.23
2018-12-16T08:37:55.424Z,100851.66
2018-12-16T08:40:23.047Z,100854.98
2018-12-16T08:42:50.602Z,100852.06
2018-12-16T08:45:18.151Z,100856.47
2018-12-16T08:47:46.061Z,100854.30
2018-12-16T08:50:13.739Z,100864.53
2018-12-16T08:52:41.800Z,100852.34
2018-12-16T08:55:09.330Z,100856.61
2018-12-16T08:57:38.326Z,100852.05
2018-12-16T09:00:05.949Z,100840.39
2018-12-16T09:02:34.500Z,100842.52
2018-12-16T09:05:03.572Z,100851.57
2018-12-16T09:10:12.852Z,100829.48
2018-12-16T09:12:41.176Z,100831.53
2018-12-16T09:15:10.679Z,100819.80
2018-12-16T09:17:38.176Z,100816.31
2018-12-16T09:20:07.133Z,100821.58
2018-12-16T09:22:34.637Z,100817.80
2018-12-16T09:25:03.588Z,100826.83
2018-12-16T09:27:31.076Z,100817.60
2018-12-16T09:30:00.355Z,100826.06
2018-12-16T09:32:28.483Z,100825.73
2018-12-16T09:34:56.886Z,100817.20
2018-12-16T09:37:24.379Z,100812.25
2018-12-16T09:39:51.958Z,100814.97
2018-12-16T09:42:19.402Z,100820.83
2018-12-16T09:44:47.239Z,100819.91
2018-12-16T09:47:15.705Z,100816.48
2018-12-16T09:49:43.245Z,100821.31
2018-12-16T09:52:10.798Z,100810.52
2018-12-16T09:54:44.253Z,100815.31
2018-12-16T09:57:10.235Z,100819.52
2018-12-16T09:59:37.970Z,100819.52
2018-12-16T10:02:06.267Z,100819.88
2018-12-16T10:04:34.508Z,100814.55
2018-12-16T10:07:02.052Z,100806.45
2018-12-16T10:11:56.752Z,100800.34
2018-12-16T10:14:24.530Z,100799.37
2018-12-16T10:16:52.212Z,100797.52
2018-12-16T10:19:19.776Z,100798.69
2018-12-16T10:21:47.334Z,100796.84
2018-12-16T10:24:15.003Z,100794.76
2018-12-16T10:26:42.831Z,100790.23
2018-12-16T10:29:11.637Z,100792.13
2018-12-16T10:43:24.074Z,100770.84
2018-12-16T10:45:53.092Z,100769.17
2018-12-16T10:48:20.646Z,100767.17
2018-12-16T10:59:56.263Z,100760.97
2018-12-16T11:02:23.707Z,100753.73
2018-12-16T11:04:51.246Z,100750.11
2018-12-16T11:07:18.697Z,100751.91
2018-12-16T11:09:46.186Z,100753.20
2018-12-16T11:12:13.633Z,100758.09
2018-12-16T11:14:41.272Z,100744.01
2018-12-16T11:17:08.722Z,100738.97
2018-12-16T11:19:36.199Z,100736.92
2018-12-16T11:22:03.727Z,100740.76
2018-12-16T11:24:31.388Z,100740.67
2018-12-16T11:26:58.959Z,100742.28
2018-12-16T11:29:26.628Z,100732.39
2018-12-16T11:31:54.620Z,100730.39
2018-12-16T11:34:22.089Z,100730.57
2018-12-16T11:36:49.582Z,100734.22
2018-12-16T11:39:17.062Z,100726.64
2018-12-16T11:41:44.526Z,100728.43
2018-12-16T11:44:12.006Z,100729.48
2018-12-16T11:46:39.548Z,100720.38
2018-12-16T11:49:07.096Z,100713.11
2018-12-16T11:51:34.797Z,100713.98
2018-12-16T11:54:02.457Z,100715.31
2018-12-16T11:56:30.295Z,100709.86
2018-12-16T11:58:58.054Z,100709.98
2018-12-16T12:01:25.617Z,100708.02
2018-12-16T12:03:53.518Z,100692.98
2018-12-16T12:06:21.079Z,100696.21
2018-12-16T12:08:48.559Z,100697.02
2018-12-16T12:11:16.287Z,100697.83
2018-12-16T12:13:43.859Z,100705.58
2018-12-16T12:16:11.412Z,100700.88
2018-12-16T12:18:38.865Z,100704.16
2018-12-16T12:21:06.460Z,100693.91
2018-12-16T12:23:33.957Z,100695.44
2018-12-16T12:26:01.512Z,100690.19
2018-12-16T12:28:29.230Z,100686.33
2018-12-16T12:30:57.050Z,100685.45
2018-12-16T12:33:25.955Z,100684.16
2018-12-16T12:35:54.181Z,100683.91
2018-12-16T12:38:21.803Z,100686.38
2018-12-16T12:40:52.510Z,100685.05
2018-12-16T12:43:20.067Z,100684.08
2018-12-16T12:45:47.741Z,100680.20
2018-12-16T12:48:15.308Z,100679.58
2018-12-16T12:50:42.958Z,100671.67
2018-12-16T12:53:10.569Z,100675.08
2018-12-16T12:55:38.171Z,100680.38
2018-12-16T12:58:05.684Z,100676.81
2018-12-16T13:00:33.193Z,100678.69
2018-12-16T13:03:00.658Z,100677.91
2018-12-16T13:05:28.493Z,100681.09
2018-12-16T13:07:57.029Z,100681.17
2018-12-16T13:10:24.655Z,100674.92
2018-12-16T13:12:52.221Z,100677.14
2018-12-16T13:15:19.734Z,100669.99
2018-12-16T13:17:48.278Z,100670.45
2018-12-16T13:20:15.748Z,100663.75
2018-12-16T13:22:43.211Z,100664.95
2018-12-16T13:25:22.636Z,100657.11
2018-12-16T13:27:51.154Z,100666.30
2018-12-16T13:30:18.690Z,100661.78
2018-12-16T13:32:46.199Z,100662.62
2018-12-16T13:35:13.675Z,100664.22
2018-12-16T13:37:41.150Z,100665.55
2018-12-16T13:40:08.817Z,100662.64
2018-12-16T13:42:36.361Z,100670.94
2018-12-16T13:45:06.383Z,100656.07
2018-12-16T13:47:34.119Z,100660.52
2018-12-16T13:50:01.813Z,100665.81
2018-12-16T13:52:29.583Z,100664.70
2018-12-16T13:54:57.233Z,100669.94
2018-12-16T13:57:24.829Z,100670.02
2018-12-16T13:59:52.345Z,100661.98
2018-12-16T14:02:19.836Z,100666.36
2018-12-16T14:04:47.312Z,100673.25
2018-12-16T14:07:14.912Z,100677.60
2018-12-16T14:09:42.707Z,100674.58
2018-12-16T14:12:10.198Z,100679.58
2018-12-16T14:14:38.318Z,100679.02
2018-12-16T14:17:05.963Z,100676.27
2018-12-16T14:19:33.579Z,100680.28
2018-12-16T14:22:01.304Z,100674.75
2018-12-16T14:24:28.792Z,100676.88
2018-12-16T14:26:56.317Z,100674.83
2018-12-16T14:29:24.346Z,100673.66
2018-12-16T14:31:51.868Z,100672.45
2018-12-16T14:34:19.334Z,100682.52
2018-12-16T14:36:46.842Z,100688.83
2018-12-16T14:39:14.424Z,100684.25
2018-12-16T14:41:42.933Z,100685.70
2018-12-16T14:44:10.722Z,100685.14
2018-12-16T14:46:38.309Z,100675.86
2018-12-16T14:49:06.219Z,100677.53
2018-12-16T14:51:33.899Z,100682.42
2018-12-16T14:54:01.603Z,100683.52
2018-12-16T14:56:29.283Z,100684.90
2018-12-16T14:58:56.787Z,100685.11
2018-12-16T15:01:24.399Z,100686.41
2018-12-16T15:03:51.876Z,100685.69
2018-12-16T15:06:20.383Z,100689.17
2018-12-16T15:08:52.670Z,100688.05
2018-12-16T15:11:20.382Z,100690.19
2018-12-16T15:13:48.504Z,100695.17
2018-12-16T15:16:16.064Z,100696.28
2018-12-16T15:18:43.862Z,100694.06
2018-12-16T15:21:12.108Z,100695.48
2018-12-16T15:23:40.345Z,100698.45
2018-12-16T15:26:08.407Z,100701.07
2018-12-16T15:28:35.981Z,100703.27
2018-12-16T15:31:03.543Z,100713.58
2018-12-16T15:33:31.093Z,100708.83
2018-12-16T15:35:58.743Z,100706.20
2018-12-16T15:38:27.189Z,100707.60
2018-12-16T15:40:54.853Z,100712.52
2018-12-16T15:43:23.829Z,100721.48
2018-12-16T15:45:51.381Z,100719.50
2018-12-16T15:48:19.097Z,100725.97
2018-12-16T15:50:47.882Z,100728.03
2018-12-16T15:53:15.541Z,100729.30
2018-12-16T15:55:43.196Z,100732.64
2018-12-16T15:58:10.690Z,100725.01
2018-12-16T16:00:38.183Z,100727.13
2018-12-16T16:03:05.823Z,100735.71
2018-12-16T16:05:33.755Z,100729.57
2018-12-16T16:08:01.475Z,100731.46
2018-12-16T16:10:30.005Z,100730.91
2018-12-16T16:12:57.827Z,100736.62
2018-12-16T16:15:25.515Z,100744.33
2018-12-16T16:17:53.401Z,100752.75
2018-12-16T16:20:20.971Z,100750.98
2018-12-16T16:22:48.573Z,100752.91
2018-12-16T16:25:16.883Z,100756.41
2018-12-16T16:27:45.159Z,100755.41
2018-12-16T16:30:12.766Z,100754.55
2018-12-16T16:32:40.284Z,100754.18
2018-12-16T16:35:08.376Z,100758.08
2018-12-16T16:37:36.123Z,100757.23
2018-12-16T16:40:04.704Z,100752.83
2018-12-16T16:42:32.349Z,100764.44
2018-12-16T16:44:59.832Z,100763.73
2018-12-16T16:47:27.341Z,100763.13
2018-12-16T16:49:54.872Z,100767.30
2018-12-16T16:52:22.364Z,100775.06
2018-12-16T16:54:49.866Z,100780.10
2018-12-16T16:57:17.623Z,100773.00
2018-12-16T16:59:45.174Z,100766.29
2018-12-16T17:02:12.920Z,100764.72
2018-12-16T17:04:40.599Z,100757.02
2018-12-16T17:07:08.158Z,100762.16
2018-12-16T17:09:35.628Z,100756.62
2018-12-16T17:12:03.183Z,100766.75
2018-12-16T17:14:30.662Z,100767.06
2018-12-16T17:16:58.271Z,100772.25
2018-12-16T17:19:25.979Z,100772.03
2018-12-16T17:21:53.765Z,100775.22
2018-12-16T17:24:21.279Z,100768.67
2018-12-16T17:26:48.863Z,100769.17
2018-12-16T17:29:16.723Z,100766.91
2018-12-16T17:31:44.335Z,100773.38
2018-12-16T17:34:11.955Z,100778.11
2018-12-16T17:36:40.350Z,100782.97
2018-12-16T17:39:08.657Z,100786.47
2018-12-16T17:41:36.147Z,100792.59
2018-12-16T17:44:05.098Z,100789.75
2018-12-16T17:46:32.600Z,100796.64
2018-12-16T17:49:00.108Z,100795.06
2018-12-16T17:51:28.567Z,100798.97
2018-12-16T17:53:56.024Z,100802.89
2018-12-16T17:56:23.821Z,100802.92
2018-12-16T17:58:51.379Z,100796.25
2018-12-16T18:01:19.102Z,100798.50
2018-12-16T18:03:46.945Z,100797.23
2018-12-16T18:06:14.906Z,100802.68
2018-12-16T18:08:42.448Z,100794.23
2018-12-16T18:11:09.924Z,100800.58
2018-12-16T18:13:37.432Z,100799.46
2018-12-16T18:16:05.556Z,100792.38
2018-12-16T18:18:33.060Z,100788.52
2018-12-16T18:21:00.826Z,100796.59
2018-12-16T18:23:29.770Z,100798.56
2018-12-16T18:25:58.259Z,100798.59
2018-12-16T18:28:25.854Z,100799.00
2018-12-16T18:30:53.473Z,100796.06
2018-12-16T18:33:21.267Z,100804.13
2018-12-16T18:35:48.737Z,100815.54
2018-12-16T18:38:16.254Z,100811.42
2018-12-16T18:40:43.734Z,100812.34
2018-12-16T18:43:11.381Z,100809.48
2018-12-16T18:45:39.610Z,100814.06
2018-12-16T18:48:07.348Z,100814.20
2018-12-16T18:50:34.921Z,100809.59
2018-12-16T18:53:02.439Z,100809.89
2018-12-16T18:55:29.926Z,100808.22
2018-12-16T18:57:57.698Z,100806.66
2018-12-16T19:00:25.348Z,100815.56
2018-12-16T19:02:53.312Z,100812.55
2018-12-16T19:05:20.794Z,100811.94
2018-12-16T19:07:48.436Z,100812.11
2018-12-16T19:10:16.150Z,100808.03
2018-12-16T19:12:43.834Z,100804.63
2018-12-16T19:15:12.148Z,100806.59
2018-12-16T19:17:42.392Z,100808.26
2018-12-16T19:20:10.746Z,100809.00
2018-12-16T19:22:38.323Z,100804.86
2018-12-16T19:25:06.574Z,100811.54
2018-12-16T19:30:16.183Z,100807.33
2018-12-16T19:32:43.681Z,100812.87
2018-12-16T19:35:11.154Z,100813.27
2018-12-16T19:37:38.643Z,100818.34
2018-12-16T19:40:06.361Z,100822.55
2018-12-16T19:42:34.023Z,100826.81
2018-12-16T19:45:01.592Z,100823.81
2018-12-16T19:47:29.246Z,100825.55
2018-12-16T19:49:56.735Z,100827.31
2018-12-16T19:52:24.264Z,100826.05
2018-12-16T19:54:52.784Z,100825.30
2018-12-16T19:57:20.520Z,100826.05
2018-12-16T19:59:48.054Z,100829.35
2018-12-16T20:02:15.540Z,100833.31
2018-12-16T20:04:45.378Z,100829.94
2018-12-16T20:07:12.891Z,100839.34
2018-12-16T20:09:40.545Z,100835.94
2018-12-16T20:12:08.179Z,100837.14
2018-12-16T20:14:35.800Z,100834.17
2018-12-16T20:17:03.605Z,100839.28
2018-12-16T20:19:31.216Z,100836.34
2018-12-16T20:21:59.121Z,100839.34
2018-12-16T20:24:26.662Z,100838.47
2018-12-16T20:26:54.362Z,100842.37
2018-12-16T20:29:21.948Z,100839.34
2018-12-16T20:31:49.449Z,100841.91
2018-12-16T20:34:16.962Z,100836.83
2018-12-16T20:36:44.475Z,100833.48
2018-12-16T20:39:12.810Z,100838.72
2018-12-16T20:41:40.412Z,100848.87
2018-12-16T20:44:07.982Z,100850.66
2018-12-16T20:46:35.579Z,100857.44
2018-12-16T20:49:03.372Z,100856.26
2018-12-16T20:51:31.058Z,100857.52
2018-12-16T20:53:58.723Z,100865.05
2018-12-16T20:56:26.346Z,100860.99
2018-12-16T20:58:53.939Z,100869.47
2018-12-16T21:01:22.298Z,100877.08
2018-12-16T21:03:49.930Z,100887.01
2018-12-16T21:06:17.606Z,100889.23
2018-12-16T21:08:45.085Z,100895.27
2018-12-16T21:11:19.067Z,100894.95
2018-12-16T21:16:56.946Z,100898.27
2018-12-16T21:19:26.193Z,100894.58
2018-12-16T21:21:56.432Z,100893.37
2018-12-16T21:24:25.355Z,100887.89
2018-12-16T21:26:53.227Z,100888.70
2018-12-16T21:29:20.742Z,100885.69
2018-12-16T21:31:48.497Z,100884.86
2018-12-16T21:34:16.107Z,100885.38
2018-12-16T21:36:43.746Z,100887.98
2018-12-16T21:39:11.280Z,100889.71
2018-12-16T21:41:38.876Z,100896.95
2018-12-16T21:44:06.807Z,100902.58
2018-12-16T21:46:34.579Z,100902.27
2018-12-16T21:49:02.266Z,100904.89
2018-12-16T21:51:29.888Z,100913.78
2018-12-16T21:53:57.397Z,100920.21
2018-12-16T21:56:25.014Z,100921.48
2018-12-16T21:58:56.027Z,100912.59
2018-12-16T22:01:23.540Z,100908.47
2018-12-16T22:03:50.999Z,100906.25
2018-12-16T22:06:18.444Z,100899.41
2018-12-16T22:08:46.047Z,100903.53
2018-12-16T22:11:13.604Z,100910.66
2018-12-16T22:13:41.135Z,100916.59
2018-12-16T22:16:08.855Z,100911.20
2018-12-16T22:18:48.127Z,100922.34
2018-12-16T22:21:15.774Z,100920.77
2018-12-16T22:23:43.246Z,100921.28
2018-12-16T22:26:10.772Z,100922.55
2018-12-16T22:28:38.312Z,100917.33
2018-12-16T22:31:05.845Z,100922.34
2018-12-16T22:33:33.707Z,100923.19
2018-12-16T22:36:01.725Z,100927.80
2018-12-16T22:38:29.358Z,100933.36
2018-12-16T22:40:58.419Z,100937.27
2018-12-16T22:43:26.045Z,100940.73
2018-12-16T22:45:54.077Z,100940.73
2018-12-16T22:48:21.601Z,100942.09
2018-12-16T22:50:49.091Z,100946.85
2018-12-16T22:53:16.625Z,100947.72
2018-12-16T22:55:44.355Z,100944.31
2018-12-16T22:58:11.929Z,100941.69
2018-12-16T23:00:45.894Z,100939.38
2018-12-16T23:03:13.496Z,100944.02
2018-12-16T23:05:41.143Z,100949.95
2018-12-16T23:08:08.942Z,100954.29
2018-12-16T23:10:36.825Z,100947.16
2018-12-16T23:13:04.323Z,100949.80
2018-12-16T23:15:31.857Z,100949.48
2018-12-16T23:17:59.421Z,100952.97
2018-12-16T23:20:33.078Z,100961.16
2018-12-16T23:23:00.588Z,100961.28
2018-12-16T23:25:28.102Z,100964.70
2018-12-16T23:27:55.564Z,100961.75
2018-12-16T23:30:23.139Z,100957.57
2018-12-16T23:32:50.605Z,100958.03
2018-12-16T23:35:18.100Z,100964.56
2018-12-16T23:37:45.595Z,100964.77
2018-12-16T23:40:13.135Z,100967.40
2018-12-16T23:42:40.615Z,100968.76
2018-12-16T23:45:08.245Z,100969.66
2018-12-16T23:47:35.906Z,100973.44
2018-12-16T23:50:05.116Z,100972.11
2018-12-16T23:52:32.778Z,100971.55
2018-12-16T23:55:00.234Z,100979.45
2018-12-16T23:57:27.734Z,100974.16
2018-12-16T23:59:55.213Z,100976.78
